FQPB

Pemba Airport

Pemba / Porto Amelia, Mozambique
METAR FQPB 181700Z 10007KT 9999 FEW020 25/21 Q1017
Observed Flight Rules
Sep-18 @ 17:00 UTC (32 minutes ago) Visual Flight Rules
Wind Visibility Clouds
100° at 7 knots 10,000+ meters
  • Few at 2,000' AGL
Temperatures Readings
Current 25°C / 77°F
Dewpoint 21°C / 70°F
Humidity 79%
Altimeter 30.03" Hg
Pressure 1017 hPa
Elevation 50
METAR FQPB 181700Z 10007KT 9999 FEW020 25/21 Q1017
Observed Flight Rules
Sep-18 @ 17:00 UTC
(32 minutes ago)
VFR
Wind Visibility
100° at 7 knots 10,000+ meters
Clouds
  • Few at 2,000' AGL
Temperature Dewpoint
25°C / 77°F 21°C / 70°F
Humidity Altimeter Pressure
79% 30.03" Hg 1017 hPa